Terminal Aerodrome Forecast
Issued by NWS

Current Version | Previous Version | Graphics & Text | Print | Product List | Glossary On
Versions: 1 2 3 4 5 6 7 8 9 10 11 12 13 14 15 16 17 18 19 20 21
000
FTUS41 KILN 240300 AAA
TAFLUK
TAF AMD
KLUK 240355Z 2404/2424 34004KT P6SM FEW030 OVC060
     FM240800 30006KT P6SM BKN022
     FM241500 26010G18KT P6SM BKN100
     FM242100 28012G20KT P6SM BKN025=

USA.gov is the U.S. government's official web portal to all federal, state and local government web resources and services.